sensor_id;sensor_type;location;lat;lon;timestamp;P1;durP1;ratioP1;P2;durP2;ratioP2
6987;SDS011;3534;49.960;8.018;2023-07-22T00:02:20;4.13;;;2.90;;
6987;SDS011;3534;49.960;8.018;2023-07-22T00:04:47;4.80;;;2.90;;
6987;SDS011;3534;49.960;8.018;2023-07-22T00:07:14;3.13;;;2.73;;
6987;SDS011;3534;49.960;8.018;2023-07-22T00:09:42;3.37;;;3.00;;
6987;SDS011;3534;49.960;8.018;2023-07-22T00:12:09;4.50;;;2.80;;
6987;SDS011;3534;49.960;8.018;2023-07-22T00:14:38;4.70;;;3.00;;
6987;SDS011;3534;49.960;8.018;2023-07-22T00:17:07;3.30;;;2.80;;
6987;SDS011;3534;49.960;8.018;2023-07-22T00:19:34;2.70;;;2.30;;
6987;SDS011;3534;49.960;8.018;2023-07-22T00:22:01;3.07;;;2.73;;
6987;SDS011;3534;49.960;8.018;2023-07-22T00:24:28;3.43;;;3.13;;
6987;SDS011;3534;49.960;8.018;2023-07-22T00:26:55;3.77;;;2.60;;
6987;SDS011;3534;49.960;8.018;2023-07-22T00:29:21;4.37;;;2.90;;
6987;SDS011;3534;49.960;8.018;2023-07-22T00:31:48;6.07;;;2.87;;
6987;SDS011;3534;49.960;8.018;2023-07-22T00:34:16;5.63;;;3.33;;
6987;SDS011;3534;49.960;8.018;2023-07-22T00:36:43;3.57;;;3.10;;
6987;SDS011;3534;49.960;8.018;2023-07-22T00:39:11;3.93;;;2.70;;
6987;SDS011;3534;49.960;8.018;2023-07-22T00:41:39;3.70;;;2.70;;
6987;SDS011;3534;49.960;8.018;2023-07-22T00:44:07;3.27;;;2.63;;
6987;SDS011;3534;49.960;8.018;2023-07-22T00:46:34;4.73;;;3.00;;
6987;SDS011;3534;49.960;8.018;2023-07-22T00:49:01;4.90;;;3.57;;
6987;SDS011;3534;49.960;8.018;2023-07-22T00:51:29;10.33;;;2.90;;
6987;SDS011;3534;49.960;8.018;2023-07-22T00:53:56;9.20;;;3.63;;
6987;SDS011;3534;49.960;8.018;2023-07-22T00:56:23;3.43;;;3.00;;
6987;SDS011;3534;49.960;8.018;2023-07-22T00:58:50;3.20;;;2.90;;
6987;SDS011;3534;49.960;8.018;2023-07-22T01:01:16;3.27;;;2.97;;
6987;SDS011;3534;49.960;8.018;2023-07-22T01:03:43;3.43;;;3.13;;
6987;SDS011;3534;49.960;8.018;2023-07-22T01:06:11;6.03;;;3.60;;
6987;SDS011;3534;49.960;8.018;2023-07-22T01:08:40;3.47;;;3.17;;
6987;SDS011;3534;49.960;8.018;2023-07-22T01:11:07;3.60;;;3.20;;
6987;SDS011;3534;49.960;8.018;2023-07-22T01:13:34;4.77;;;3.27;;
6987;SDS011;3534;49.960;8.018;2023-07-22T01:16:01;4.40;;;3.00;;
6987;SDS011;3534;49.960;8.018;2023-07-22T01:18:27;7.20;;;2.90;;
6987;SDS011;3534;49.960;8.018;2023-07-22T01:20:54;7.03;;;3.13;;
6987;SDS011;3534;49.960;8.018;2023-07-22T01:23:22;3.80;;;3.10;;
6987;SDS011;3534;49.960;8.018;2023-07-22T01:25:49;3.83;;;3.53;;
6987;SDS011;3534;49.960;8.018;2023-07-22T01:28:17;4.77;;;3.00;;
6987;SDS011;3534;49.960;8.018;2023-07-22T01:30:46;3.37;;;3.07;;
6987;SDS011;3534;49.960;8.018;2023-07-22T01:33:13;3.30;;;3.00;;
6987;SDS011;3534;49.960;8.018;2023-07-22T01:35:40;6.33;;;3.37;;
6987;SDS011;3534;49.960;8.018;2023-07-22T01:38:07;3.60;;;3.07;;
6987;SDS011;3534;49.960;8.018;2023-07-22T01:40:35;6.30;;;3.07;;
6987;SDS011;3534;49.960;8.018;2023-07-22T01:43:02;10.50;;;3.87;;
6987;SDS011;3534;49.960;8.018;2023-07-22T01:45:28;3.50;;;3.10;;
6987;SDS011;3534;49.960;8.018;2023-07-22T01:47:55;3.93;;;3.50;;
6987;SDS011;3534;49.960;8.018;2023-07-22T01:50:22;3.30;;;3.00;;
6987;SDS011;3534;49.960;8.018;2023-07-22T01:52:49;11.93;;;4.17;;
6987;SDS011;3534;49.960;8.018;2023-07-22T01:55:15;3.90;;;3.20;;
6987;SDS011;3534;49.960;8.018;2023-07-22T01:57:44;3.60;;;3.30;;
6987;SDS011;3534;49.960;8.018;2023-07-22T02:00:11;3.87;;;3.47;;
6987;SDS011;3534;49.960;8.018;2023-07-22T02:02:40;5.37;;;3.60;;
6987;SDS011;3534;49.960;8.018;2023-07-22T02:05:08;8.30;;;3.30;;
6987;SDS011;3534;49.960;8.018;2023-07-22T02:07:35;4.63;;;3.90;;
6987;SDS011;3534;49.960;8.018;2023-07-22T02:10:02;4.33;;;3.93;;
6987;SDS011;3534;49.960;8.018;2023-07-22T02:12:29;6.20;;;3.77;;
6987;SDS011;3534;49.960;8.018;2023-07-22T02:14:57;3.90;;;3.27;;
6987;SDS011;3534;49.960;8.018;2023-07-22T02:17:24;5.83;;;3.30;;
6987;SDS011;3534;49.960;8.018;2023-07-22T02:19:51;4.00;;;3.10;;
6987;SDS011;3534;49.960;8.018;2023-07-22T02:22:18;4.50;;;3.40;;
6987;SDS011;3534;49.960;8.018;2023-07-22T02:24:45;4.00;;;3.60;;
6987;SDS011;3534;49.960;8.018;2023-07-22T02:27:11;3.33;;;3.03;;
6987;SDS011;3534;49.960;8.018;2023-07-22T02:29:39;4.23;;;2.83;;
6987;SDS011;3534;49.960;8.018;2023-07-22T02:32:07;4.50;;;3.37;;
6987;SDS011;3534;49.960;8.018;2023-07-22T02:34:34;4.47;;;3.50;;
6987;SDS011;3534;49.960;8.018;2023-07-22T02:37:02;4.07;;;3.40;;
6987;SDS011;3534;49.960;8.018;2023-07-22T02:39:29;4.50;;;3.33;;
6987;SDS011;3534;49.960;8.018;2023-07-22T02:41:56;4.00;;;3.50;;
6987;SDS011;3534;49.960;8.018;2023-07-22T02:44:22;5.23;;;3.63;;
6987;SDS011;3534;49.960;8.018;2023-07-22T02:46:49;5.67;;;3.07;;
6987;SDS011;3534;49.960;8.018;2023-07-22T02:49:17;7.47;;;4.10;;
6987;SDS011;3534;49.960;8.018;2023-07-22T02:51:43;4.67;;;3.57;;
6987;SDS011;3534;49.960;8.018;2023-07-22T02:54:10;5.07;;;3.83;;
6987;SDS011;3534;49.960;8.018;2023-07-22T02:56:37;3.70;;;3.00;;
6987;SDS011;3534;49.960;8.018;2023-07-22T02:59:04;4.70;;;3.57;;
6987;SDS011;3534;49.960;8.018;2023-07-22T03:01:30;5.00;;;3.53;;
6987;SDS011;3534;49.960;8.018;2023-07-22T03:03:57;3.63;;;2.77;;
6987;SDS011;3534;49.960;8.018;2023-07-22T03:06:25;5.47;;;3.27;;
6987;SDS011;3534;49.960;8.018;2023-07-22T03:08:53;8.00;;;4.50;;
6987;SDS011;3534;49.960;8.018;2023-07-22T03:11:20;5.63;;;3.73;;
6987;SDS011;3534;49.960;8.018;2023-07-22T03:13:50;4.83;;;3.97;;
6987;SDS011;3534;49.960;8.018;2023-07-22T03:16:16;3.40;;;2.97;;
6987;SDS011;3534;49.960;8.018;2023-07-22T03:18:43;6.13;;;3.77;;
6987;SDS011;3534;49.960;8.018;2023-07-22T03:21:10;5.40;;;3.37;;
6987;SDS011;3534;49.960;8.018;2023-07-22T03:23:38;5.30;;;4.03;;
6987;SDS011;3534;49.960;8.018;2023-07-22T03:26:05;6.00;;;3.60;;
6987;SDS011;3534;49.960;8.018;2023-07-22T03:28:31;3.90;;;3.50;;
6987;SDS011;3534;49.960;8.018;2023-07-22T03:30:58;4.07;;;3.60;;
6987;SDS011;3534;49.960;8.018;2023-07-22T03:33:24;7.60;;;3.33;;
6987;SDS011;3534;49.960;8.018;2023-07-22T03:35:51;4.33;;;3.33;;
6987;SDS011;3534;49.960;8.018;2023-07-22T03:38:18;4.03;;;3.60;;
6987;SDS011;3534;49.960;8.018;2023-07-22T03:40:46;4.40;;;3.43;;
6987;SDS011;3534;49.960;8.018;2023-07-22T03:43:12;5.00;;;3.33;;
6987;SDS011;3534;49.960;8.018;2023-07-22T03:45:39;4.37;;;3.63;;
6987;SDS011;3534;49.960;8.018;2023-07-22T03:48:06;4.03;;;3.60;;
6987;SDS011;3534;49.960;8.018;2023-07-22T03:50:34;6.70;;;3.40;;
6987;SDS011;3534;49.960;8.018;2023-07-22T03:53:00;6.57;;;3.47;;
6987;SDS011;3534;49.960;8.018;2023-07-22T03:55:27;6.80;;;3.63;;
6987;SDS011;3534;49.960;8.018;2023-07-22T03:57:55;5.47;;;3.87;;
6987;SDS011;3534;49.960;8.018;2023-07-22T04:00:22;3.80;;;3.27;;
6987;SDS011;3534;49.960;8.018;2023-07-22T04:02:48;9.47;;;3.63;;
6987;SDS011;3534;49.960;8.018;2023-07-22T04:05:15;4.93;;;3.27;;
6987;SDS011;3534;49.960;8.018;2023-07-22T04:07:43;7.33;;;3.60;;
6987;SDS011;3534;49.960;8.018;2023-07-22T04:10:10;3.80;;;3.47;;
6987;SDS011;3534;49.960;8.018;2023-07-22T04:12:37;3.83;;;3.40;;
6987;SDS011;3534;49.960;8.018;2023-07-22T04:15:06;4.50;;;3.60;;
6987;SDS011;3534;49.960;8.018;2023-07-22T04:17:33;3.60;;;3.30;;
6987;SDS011;3534;49.960;8.018;2023-07-22T04:20:00;8.27;;;3.73;;
6987;SDS011;3534;49.960;8.018;2023-07-22T04:22:28;4.20;;;3.47;;
6987;SDS011;3534;49.960;8.018;2023-07-22T04:24:55;6.40;;;3.90;;
6987;SDS011;3534;49.960;8.018;2023-07-22T04:27:22;3.87;;;3.17;;
6987;SDS011;3534;49.960;8.018;2023-07-22T04:29:49;4.20;;;3.53;;
6987;SDS011;3534;49.960;8.018;2023-07-22T04:32:17;4.23;;;3.20;;
6987;SDS011;3534;49.960;8.018;2023-07-22T04:34:44;5.10;;;3.60;;
6987;SDS011;3534;49.960;8.018;2023-07-22T04:37:10;5.67;;;4.10;;
6987;SDS011;3534;49.960;8.018;2023-07-22T04:39:37;3.93;;;3.40;;
6987;SDS011;3534;49.960;8.018;2023-07-22T04:42:04;4.63;;;3.73;;
6987;SDS011;3534;49.960;8.018;2023-07-22T04:44:32;4.43;;;3.77;;
6987;SDS011;3534;49.960;8.018;2023-07-22T04:46:58;4.03;;;3.53;;
6987;SDS011;3534;49.960;8.018;2023-07-22T04:49:26;5.63;;;3.87;;
6987;SDS011;3534;49.960;8.018;2023-07-22T04:51:53;5.40;;;3.73;;
6987;SDS011;3534;49.960;8.018;2023-07-22T04:54:20;8.53;;;4.90;;
6987;SDS011;3534;49.960;8.018;2023-07-22T04:56:47;4.37;;;3.90;;
6987;SDS011;3534;49.960;8.018;2023-07-22T04:59:14;6.83;;;4.77;;
6987;SDS011;3534;49.960;8.018;2023-07-22T05:01:41;4.40;;;3.67;;
6987;SDS011;3534;49.960;8.018;2023-07-22T05:04:08;6.50;;;3.80;;
6987;SDS011;3534;49.960;8.018;2023-07-22T05:06:36;4.17;;;3.77;;
6987;SDS011;3534;49.960;8.018;2023-07-22T05:09:03;8.90;;;4.50;;
6987;SDS011;3534;49.960;8.018;2023-07-22T05:11:30;5.33;;;3.80;;
6987;SDS011;3534;49.960;8.018;2023-07-22T05:13:56;4.20;;;3.80;;
6987;SDS011;3534;49.960;8.018;2023-07-22T05:16:23;6.20;;;4.00;;
6987;SDS011;3534;49.960;8.018;2023-07-22T05:18:50;5.47;;;4.03;;
6987;SDS011;3534;49.960;8.018;2023-07-22T05:21:16;5.23;;;3.97;;
6987;SDS011;3534;49.960;8.018;2023-07-22T05:23:44;7.47;;;4.30;;
6987;SDS011;3534;49.960;8.018;2023-07-22T05:26:11;4.90;;;4.33;;
6987;SDS011;3534;49.960;8.018;2023-07-22T05:28:38;5.00;;;3.87;;
6987;SDS011;3534;49.960;8.018;2023-07-22T05:31:04;5.03;;;4.20;;
6987;SDS011;3534;49.960;8.018;2023-07-22T05:33:31;4.47;;;4.07;;
6987;SDS011;3534;49.960;8.018;2023-07-22T05:35:58;5.20;;;4.20;;
6987;SDS011;3534;49.960;8.018;2023-07-22T05:38:25;5.90;;;4.53;;
6987;SDS011;3534;49.960;8.018;2023-07-22T05:40:53;4.57;;;3.87;;
6987;SDS011;3534;49.960;8.018;2023-07-22T05:43:19;5.10;;;4.37;;
6987;SDS011;3534;49.960;8.018;2023-07-22T05:45:46;6.53;;;4.13;;
6987;SDS011;3534;49.960;8.018;2023-07-22T05:48:13;5.27;;;4.30;;
6987;SDS011;3534;49.960;8.018;2023-07-22T05:50:39;5.90;;;4.20;;
6987;SDS011;3534;49.960;8.018;2023-07-22T05:53:06;4.50;;;4.10;;
6987;SDS011;3534;49.960;8.018;2023-07-22T05:55:33;9.57;;;4.30;;
6987;SDS011;3534;49.960;8.018;2023-07-22T05:58:01;6.00;;;4.63;;
6987;SDS011;3534;49.960;8.018;2023-07-22T06:00:30;5.07;;;4.07;;
6987;SDS011;3534;49.960;8.018;2023-07-22T06:02:57;5.13;;;4.40;;
6987;SDS011;3534;49.960;8.018;2023-07-22T06:05:24;4.70;;;4.07;;
6987;SDS011;3534;49.960;8.018;2023-07-22T06:07:51;11.27;;;4.70;;
6987;SDS011;3534;49.960;8.018;2023-07-22T06:10:19;5.17;;;4.63;;
6987;SDS011;3534;49.960;8.018;2023-07-22T06:12:46;5.97;;;4.70;;
6987;SDS011;3534;49.960;8.018;2023-07-22T06:15:14;6.23;;;4.47;;
6987;SDS011;3534;49.960;8.018;2023-07-22T06:17:41;5.30;;;4.53;;
6987;SDS011;3534;49.960;8.018;2023-07-22T06:20:08;7.53;;;4.67;;
6987;SDS011;3534;49.960;8.018;2023-07-22T06:22:35;5.40;;;4.90;;
6987;SDS011;3534;49.960;8.018;2023-07-22T06:25:02;8.70;;;4.57;;
6987;SDS011;3534;49.960;8.018;2023-07-22T06:27:29;5.27;;;4.60;;
6987;SDS011;3534;49.960;8.018;2023-07-22T06:29:55;5.03;;;4.40;;
6987;SDS011;3534;49.960;8.018;2023-07-22T06:32:24;7.17;;;4.73;;
6987;SDS011;3534;49.960;8.018;2023-07-22T06:34:51;6.87;;;5.00;;
6987;SDS011;3534;49.960;8.018;2023-07-22T06:37:17;8.43;;;4.70;;
6987;SDS011;3534;49.960;8.018;2023-07-22T06:39:44;6.03;;;4.43;;
6987;SDS011;3534;49.960;8.018;2023-07-22T06:42:11;6.13;;;4.50;;
6987;SDS011;3534;49.960;8.018;2023-07-22T06:44:37;13.70;;;5.97;;
6987;SDS011;3534;49.960;8.018;2023-07-22T06:47:04;4.73;;;4.33;;
6987;SDS011;3534;49.960;8.018;2023-07-22T06:49:33;5.60;;;4.13;;
6987;SDS011;3534;49.960;8.018;2023-07-22T06:51:59;10.33;;;4.57;;
6987;SDS011;3534;49.960;8.018;2023-07-22T06:54:27;8.60;;;5.30;;
6987;SDS011;3534;49.960;8.018;2023-07-22T06:56:53;5.23;;;4.53;;
6987;SDS011;3534;49.960;8.018;2023-07-22T06:59:20;7.13;;;5.10;;
6987;SDS011;3534;49.960;8.018;2023-07-22T07:01:47;5.10;;;4.60;;
6987;SDS011;3534;49.960;8.018;2023-07-22T07:04:13;5.27;;;4.00;;
6987;SDS011;3534;49.960;8.018;2023-07-22T07:06:41;5.33;;;4.40;;
6987;SDS011;3534;49.960;8.018;2023-07-22T07:09:08;7.57;;;4.73;;
6987;SDS011;3534;49.960;8.018;2023-07-22T07:11:35;4.83;;;4.33;;
6987;SDS011;3534;49.960;8.018;2023-07-22T07:14:02;5.37;;;4.43;;
6987;SDS011;3534;49.960;8.018;2023-07-22T07:16:29;4.83;;;4.20;;
6987;SDS011;3534;49.960;8.018;2023-07-22T07:18:57;6.90;;;4.30;;
6987;SDS011;3534;49.960;8.018;2023-07-22T07:21:24;7.57;;;4.60;;
6987;SDS011;3534;49.960;8.018;2023-07-22T07:23:53;5.40;;;4.63;;
6987;SDS011;3534;49.960;8.018;2023-07-22T07:26:20;12.03;;;4.47;;
6987;SDS011;3534;49.960;8.018;2023-07-22T07:28:47;4.90;;;3.80;;
6987;SDS011;3534;49.960;8.018;2023-07-22T07:31:15;5.37;;;4.20;;
6987;SDS011;3534;49.960;8.018;2023-07-22T07:33:42;5.80;;;4.47;;
6987;SDS011;3534;49.960;8.018;2023-07-22T07:36:09;8.33;;;4.53;;
6987;SDS011;3534;49.960;8.018;2023-07-22T07:38:35;6.00;;;4.43;;
6987;SDS011;3534;49.960;8.018;2023-07-22T07:41:04;5.53;;;4.50;;
6987;SDS011;3534;49.960;8.018;2023-07-22T07:43:33;4.53;;;4.10;;
6987;SDS011;3534;49.960;8.018;2023-07-22T07:46:12;5.67;;;4.63;;
6987;SDS011;3534;49.960;8.018;2023-07-22T07:48:42;6.27;;;4.40;;
6987;SDS011;3534;49.960;8.018;2023-07-22T07:51:09;5.20;;;4.00;;
6987;SDS011;3534;49.960;8.018;2023-07-22T07:53:37;5.10;;;4.20;;
6987;SDS011;3534;49.960;8.018;2023-07-22T07:56:05;5.40;;;4.10;;
6987;SDS011;3534;49.960;8.018;2023-07-22T07:58:31;4.30;;;3.90;;
6987;SDS011;3534;49.960;8.018;2023-07-22T08:00:58;5.63;;;4.33;;
6987;SDS011;3534;49.960;8.018;2023-07-22T08:03:25;4.20;;;3.20;;
6987;SDS011;3534;49.960;8.018;2023-07-22T08:05:51;7.33;;;3.63;;
6987;SDS011;3534;49.960;8.018;2023-07-22T08:08:18;11.90;;;4.57;;
6987;SDS011;3534;49.960;8.018;2023-07-22T08:10:45;8.70;;;4.10;;
6987;SDS011;3534;49.960;8.018;2023-07-22T08:13:14;4.43;;;3.90;;
6987;SDS011;3534;49.960;8.018;2023-07-22T08:15:41;4.00;;;3.37;;
6987;SDS011;3534;49.960;8.018;2023-07-22T08:18:07;3.73;;;3.17;;
6987;SDS011;3534;49.960;8.018;2023-07-22T08:20:34;5.93;;;3.70;;
6987;SDS011;3534;49.960;8.018;2023-07-22T08:23:01;4.37;;;3.80;;
6987;SDS011;3534;49.960;8.018;2023-07-22T08:25:27;8.90;;;3.47;;
6987;SDS011;3534;49.960;8.018;2023-07-22T08:27:54;6.77;;;3.30;;
6987;SDS011;3534;49.960;8.018;2023-07-22T08:30:22;5.77;;;3.20;;
6987;SDS011;3534;49.960;8.018;2023-07-22T08:32:49;9.77;;;3.30;;
6987;SDS011;3534;49.960;8.018;2023-07-22T08:35:15;3.40;;;2.90;;
6987;SDS011;3534;49.960;8.018;2023-07-22T08:37:43;6.40;;;3.97;;
6987;SDS011;3534;49.960;8.018;2023-07-22T08:40:12;7.67;;;3.23;;
6987;SDS011;3534;49.960;8.018;2023-07-22T08:42:38;6.83;;;3.00;;
6987;SDS011;3534;49.960;8.018;2023-07-22T08:45:08;9.73;;;3.57;;
6987;SDS011;3534;49.960;8.018;2023-07-22T08:47:38;5.40;;;3.43;;
6987;SDS011;3534;49.960;8.018;2023-07-22T08:50:12;6.60;;;3.27;;
6987;SDS011;3534;49.960;8.018;2023-07-22T08:52:45;9.57;;;2.63;;
6987;SDS011;3534;49.960;8.018;2023-07-22T08:55:13;3.73;;;3.40;;
6987;SDS011;3534;49.960;8.018;2023-07-22T08:57:40;3.97;;;3.20;;
6987;SDS011;3534;49.960;8.018;2023-07-22T09:00:08;4.20;;;3.10;;
6987;SDS011;3534;49.960;8.018;2023-07-22T09:02:38;5.27;;;3.17;;
6987;SDS011;3534;49.960;8.018;2023-07-22T09:05:06;2.90;;;2.60;;
6987;SDS011;3534;49.960;8.018;2023-07-22T09:07:34;6.53;;;3.47;;
6987;SDS011;3534;49.960;8.018;2023-07-22T09:10:01;5.13;;;3.53;;
6987;SDS011;3534;49.960;8.018;2023-07-22T09:12:28;6.40;;;3.43;;
6987;SDS011;3534;49.960;8.018;2023-07-22T09:14:56;3.67;;;3.20;;
6987;SDS011;3534;49.960;8.018;2023-07-22T09:17:24;4.47;;;3.20;;
6987;SDS011;3534;49.960;8.018;2023-07-22T09:19:52;4.43;;;3.33;;
6987;SDS011;3534;49.960;8.018;2023-07-22T09:22:24;10.23;;;3.63;;
6987;SDS011;3534;49.960;8.018;2023-07-22T09:24:51;8.13;;;3.17;;
6987;SDS011;3534;49.960;8.018;2023-07-22T09:27:22;7.80;;;3.97;;
6987;SDS011;3534;49.960;8.018;2023-07-22T09:29:59;7.97;;;3.80;;
6987;SDS011;3534;49.960;8.018;2023-07-22T09:32:34;4.60;;;3.60;;
6987;SDS011;3534;49.960;8.018;2023-07-22T09:35:04;5.90;;;3.83;;
6987;SDS011;3534;49.960;8.018;2023-07-22T09:37:38;7.10;;;3.70;;
6987;SDS011;3534;49.960;8.018;2023-07-22T09:40:13;5.27;;;3.87;;
6987;SDS011;3534;49.960;8.018;2023-07-22T09:42:42;9.23;;;3.97;;
6987;SDS011;3534;49.960;8.018;2023-07-22T09:45:10;7.33;;;3.60;;
6987;SDS011;3534;49.960;8.018;2023-07-22T09:47:40;5.37;;;4.00;;
6987;SDS011;3534;49.960;8.018;2023-07-22T09:50:11;5.90;;;3.57;;
6987;SDS011;3534;49.960;8.018;2023-07-22T09:52:46;7.80;;;3.50;;
6987;SDS011;3534;49.960;8.018;2023-07-22T09:55:14;3.60;;;3.17;;
6987;SDS011;3534;49.960;8.018;2023-07-22T09:57:43;7.03;;;3.20;;
6987;SDS011;3534;49.960;8.018;2023-07-22T10:00:12;6.27;;;3.40;;
6987;SDS011;3534;49.960;8.018;2023-07-22T10:02:41;8.17;;;3.47;;
6987;SDS011;3534;49.960;8.018;2023-07-22T10:05:12;3.70;;;3.40;;
6987;SDS011;3534;49.960;8.018;2023-07-22T10:07:45;8.30;;;3.87;;
6987;SDS011;3534;49.960;8.018;2023-07-22T10:10:14;8.30;;;3.97;;
6987;SDS011;3534;49.960;8.018;2023-07-22T10:12:43;4.13;;;3.27;;
6987;SDS011;3534;49.960;8.018;2023-07-22T10:15:10;4.20;;;3.23;;
6987;SDS011;3534;49.960;8.018;2023-07-22T10:17:38;5.67;;;3.60;;
6987;SDS011;3534;49.960;8.018;2023-07-22T10:20:06;6.30;;;3.50;;
6987;SDS011;3534;49.960;8.018;2023-07-22T10:22:36;4.20;;;3.23;;
6987;SDS011;3534;49.960;8.018;2023-07-22T10:25:06;3.67;;;3.37;;
6987;SDS011;3534;49.960;8.018;2023-07-22T10:27:34;8.40;;;3.50;;
6987;SDS011;3534;49.960;8.018;2023-07-22T10:30:01;6.40;;;3.30;;
6987;SDS011;3534;49.960;8.018;2023-07-22T10:32:32;3.27;;;2.97;;
6987;SDS011;3534;49.960;8.018;2023-07-22T10:34:59;3.90;;;3.53;;
6987;SDS011;3534;49.960;8.018;2023-07-22T10:37:29;3.97;;;3.57;;
6987;SDS011;3534;49.960;8.018;2023-07-22T10:39:59;7.10;;;3.40;;
6987;SDS011;3534;49.960;8.018;2023-07-22T10:42:27;3.80;;;3.00;;
6987;SDS011;3534;49.960;8.018;2023-07-22T10:45:18;6.63;;;3.10;;
6987;SDS011;3534;49.960;8.018;2023-07-22T10:47:58;5.03;;;3.50;;
6987;SDS011;3534;49.960;8.018;2023-07-22T10:50:30;5.60;;;3.50;;
6987;SDS011;3534;49.960;8.018;2023-07-22T10:53:05;4.00;;;3.60;;
6987;SDS011;3534;49.960;8.018;2023-07-22T10:55:32;4.67;;;4.00;;
6987;SDS011;3534;49.960;8.018;2023-07-22T10:58:03;4.93;;;3.60;;
6987;SDS011;3534;49.960;8.018;2023-07-22T11:00:32;7.60;;;4.00;;
6987;SDS011;3534;49.960;8.018;2023-07-22T11:03:08;11.60;;;3.77;;
6987;SDS011;3534;49.960;8.018;2023-07-22T11:05:48;6.57;;;3.67;;
6987;SDS011;3534;49.960;8.018;2023-07-22T11:08:18;4.90;;;3.90;;
6987;SDS011;3534;49.960;8.018;2023-07-22T11:11:01;6.07;;;3.23;;
6987;SDS011;3534;49.960;8.018;2023-07-22T11:13:28;7.47;;;3.83;;
6987;SDS011;3534;49.960;8.018;2023-07-22T11:15:58;5.50;;;3.73;;
6987;SDS011;3534;49.960;8.018;2023-07-22T11:18:35;6.37;;;3.90;;
6987;SDS011;3534;49.960;8.018;2023-07-22T11:21:06;4.30;;;3.83;;
6987;SDS011;3534;49.960;8.018;2023-07-22T11:23:33;4.57;;;3.40;;
6987;SDS011;3534;49.960;8.018;2023-07-22T11:26:01;4.73;;;3.50;;
6987;SDS011;3534;49.960;8.018;2023-07-22T11:28:28;5.20;;;3.47;;
6987;SDS011;3534;49.960;8.018;2023-07-22T11:30:55;4.30;;;3.30;;
6987;SDS011;3534;49.960;8.018;2023-07-22T11:33:23;5.77;;;3.40;;
6987;SDS011;3534;49.960;8.018;2023-07-22T11:35:49;13.00;;;3.60;;
6987;SDS011;3534;49.960;8.018;2023-07-22T11:38:16;6.17;;;3.13;;
6987;SDS011;3534;49.960;8.018;2023-07-22T11:40:43;6.10;;;3.20;;
6987;SDS011;3534;49.960;8.018;2023-07-22T11:43:12;5.50;;;3.27;;
6987;SDS011;3534;49.960;8.018;2023-07-22T11:45:40;4.10;;;2.80;;
6987;SDS011;3534;49.960;8.018;2023-07-22T11:48:08;4.90;;;3.20;;
6987;SDS011;3534;49.960;8.018;2023-07-22T11:50:37;3.97;;;2.70;;
6987;SDS011;3534;49.960;8.018;2023-07-22T11:53:04;5.50;;;3.40;;
6987;SDS011;3534;49.960;8.018;2023-07-22T11:55:31;4.30;;;2.93;;
6987;SDS011;3534;49.960;8.018;2023-07-22T11:58:01;6.10;;;3.37;;
6987;SDS011;3534;49.960;8.018;2023-07-22T12:00:28;5.50;;;3.33;;
6987;SDS011;3534;49.960;8.018;2023-07-22T12:02:55;4.83;;;3.20;;
6987;SDS011;3534;49.960;8.018;2023-07-22T12:05:22;4.40;;;3.20;;
6987;SDS011;3534;49.960;8.018;2023-07-22T12:07:50;3.23;;;2.93;;
6987;SDS011;3534;49.960;8.018;2023-07-22T12:10:16;6.53;;;3.73;;
6987;SDS011;3534;49.960;8.018;2023-07-22T12:12:44;5.33;;;3.47;;
6987;SDS011;3534;49.960;8.018;2023-07-22T12:15:14;5.93;;;3.20;;
6987;SDS011;3534;49.960;8.018;2023-07-22T12:17:46;3.83;;;3.10;;
6987;SDS011;3534;49.960;8.018;2023-07-22T12:20:14;4.50;;;2.93;;
6987;SDS011;3534;49.960;8.018;2023-07-22T12:22:41;6.57;;;2.77;;
6987;SDS011;3534;49.960;8.018;2023-07-22T12:25:09;5.10;;;3.30;;
6987;SDS011;3534;49.960;8.018;2023-07-22T12:27:36;8.50;;;3.10;;
6987;SDS011;3534;49.960;8.018;2023-07-22T12:30:03;4.37;;;2.90;;
6987;SDS011;3534;49.960;8.018;2023-07-22T12:32:32;4.90;;;3.20;;
6987;SDS011;3534;49.960;8.018;2023-07-22T12:34:58;8.50;;;3.20;;
6987;SDS011;3534;49.960;8.018;2023-07-22T12:37:25;4.67;;;3.27;;
6987;SDS011;3534;49.960;8.018;2023-07-22T12:39:53;5.27;;;3.63;;
6987;SDS011;3534;49.960;8.018;2023-07-22T12:42:21;5.77;;;2.90;;
6987;SDS011;3534;49.960;8.018;2023-07-22T12:44:48;3.90;;;3.00;;
6987;SDS011;3534;49.960;8.018;2023-07-22T12:47:15;4.33;;;2.67;;
6987;SDS011;3534;49.960;8.018;2023-07-22T12:49:41;4.13;;;3.70;;
6987;SDS011;3534;49.960;8.018;2023-07-22T12:52:08;3.80;;;2.50;;
6987;SDS011;3534;49.960;8.018;2023-07-22T12:54:35;7.60;;;2.77;;
6987;SDS011;3534;49.960;8.018;2023-07-22T12:57:02;3.47;;;2.90;;
6987;SDS011;3534;49.960;8.018;2023-07-22T12:59:30;7.67;;;3.57;;
6987;SDS011;3534;49.960;8.018;2023-07-22T13:01:57;11.27;;;3.30;;
6987;SDS011;3534;49.960;8.018;2023-07-22T13:04:24;6.17;;;2.70;;
6987;SDS011;3534;49.960;8.018;2023-07-22T13:06:51;4.73;;;3.30;;
6987;SDS011;3534;49.960;8.018;2023-07-22T13:09:17;8.13;;;3.20;;
6987;SDS011;3534;49.960;8.018;2023-07-22T13:11:44;3.40;;;2.70;;
6987;SDS011;3534;49.960;8.018;2023-07-22T13:14:11;5.60;;;2.70;;
6987;SDS011;3534;49.960;8.018;2023-07-22T13:16:39;5.27;;;2.70;;
6987;SDS011;3534;49.960;8.018;2023-07-22T13:19:06;6.50;;;3.13;;
6987;SDS011;3534;49.960;8.018;2023-07-22T13:21:32;4.10;;;3.30;;
6987;SDS011;3534;49.960;8.018;2023-07-22T13:23:59;7.13;;;3.13;;
6987;SDS011;3534;49.960;8.018;2023-07-22T13:26:26;5.13;;;3.00;;
6987;SDS011;3534;49.960;8.018;2023-07-22T13:28:52;5.30;;;2.87;;
6987;SDS011;3534;49.960;8.018;2023-07-22T13:31:19;8.07;;;2.93;;
6987;SDS011;3534;49.960;8.018;2023-07-22T13:33:47;4.50;;;3.07;;
6987;SDS011;3534;49.960;8.018;2023-07-22T13:36:14;8.30;;;3.30;;
6987;SDS011;3534;49.960;8.018;2023-07-22T13:38:40;3.90;;;2.67;;
6987;SDS011;3534;49.960;8.018;2023-07-22T13:41:07;5.37;;;3.47;;
6987;SDS011;3534;49.960;8.018;2023-07-22T13:43:34;5.77;;;3.57;;
6987;SDS011;3534;49.960;8.018;2023-07-22T13:46:00;5.90;;;3.03;;
6987;SDS011;3534;49.960;8.018;2023-07-22T13:48:27;12.97;;;5.03;;
6987;SDS011;3534;49.960;8.018;2023-07-22T13:50:55;3.20;;;2.63;;
6987;SDS011;3534;49.960;8.018;2023-07-22T13:53:22;12.13;;;4.57;;
6987;SDS011;3534;49.960;8.018;2023-07-22T13:55:48;5.60;;;3.63;;
6987;SDS011;3534;49.960;8.018;2023-07-22T13:58:15;3.63;;;3.00;;
6987;SDS011;3534;49.960;8.018;2023-07-22T14:00:42;2.60;;;2.40;;
6987;SDS011;3534;49.960;8.018;2023-07-22T14:03:08;3.33;;;2.67;;
6987;SDS011;3534;49.960;8.018;2023-07-22T14:05:35;5.67;;;3.13;;
6987;SDS011;3534;49.960;8.018;2023-07-22T14:08:03;4.57;;;3.03;;
6987;SDS011;3534;49.960;8.018;2023-07-22T14:10:30;3.60;;;2.90;;
6987;SDS011;3534;49.960;8.018;2023-07-22T14:12:57;4.83;;;3.00;;
6987;SDS011;3534;49.960;8.018;2023-07-22T14:15:23;4.67;;;2.60;;
6987;SDS011;3534;49.960;8.018;2023-07-22T14:17:50;3.53;;;2.50;;
6987;SDS011;3534;49.960;8.018;2023-07-22T14:20:17;6.67;;;3.20;;
6987;SDS011;3534;49.960;8.018;2023-07-22T14:22:44;5.10;;;2.67;;
6987;SDS011;3534;49.960;8.018;2023-07-22T14:25:13;3.83;;;2.10;;
6987;SDS011;3534;49.960;8.018;2023-07-22T14:27:40;4.60;;;2.23;;
6987;SDS011;3534;49.960;8.018;2023-07-22T14:30:07;9.13;;;3.80;;
6987;SDS011;3534;49.960;8.018;2023-07-22T14:32:34;7.80;;;3.90;;
6987;SDS011;3534;49.960;8.018;2023-07-22T14:35:02;3.53;;;3.00;;
6987;SDS011;3534;49.960;8.018;2023-07-22T14:37:29;3.47;;;3.17;;
6987;SDS011;3534;49.960;8.018;2023-07-22T14:39:56;3.03;;;2.73;;
6987;SDS011;3534;49.960;8.018;2023-07-22T14:42:24;3.70;;;2.97;;
6987;SDS011;3534;49.960;8.018;2023-07-22T14:44:50;4.90;;;2.90;;
6987;SDS011;3534;49.960;8.018;2023-07-22T14:47:17;6.30;;;2.83;;
6987;SDS011;3534;49.960;8.018;2023-07-22T14:49:44;3.37;;;2.50;;
6987;SDS011;3534;49.960;8.018;2023-07-22T14:52:11;4.50;;;3.63;;
6987;SDS011;3534;49.960;8.018;2023-07-22T14:54:37;8.00;;;3.97;;
6987;SDS011;3534;49.960;8.018;2023-07-22T14:57:04;5.43;;;3.73;;
6987;SDS011;3534;49.960;8.018;2023-07-22T14:59:32;4.57;;;3.23;;
6987;SDS011;3534;49.960;8.018;2023-07-22T15:01:59;4.50;;;2.93;;
6987;SDS011;3534;49.960;8.018;2023-07-22T15:04:26;3.40;;;3.10;;
6987;SDS011;3534;49.960;8.018;2023-07-22T15:06:52;9.73;;;3.33;;
6987;SDS011;3534;49.960;8.018;2023-07-22T15:09:19;4.80;;;3.00;;
6987;SDS011;3534;49.960;8.018;2023-07-22T15:11:46;5.70;;;3.20;;
6987;SDS011;3534;49.960;8.018;2023-07-22T15:14:12;6.90;;;2.80;;
6987;SDS011;3534;49.960;8.018;2023-07-22T15:16:40;7.10;;;3.70;;
6987;SDS011;3534;49.960;8.018;2023-07-22T15:19:07;9.13;;;3.80;;